sensor_id;sensor_type;location;lat;lon;timestamp;temperature;humidity
66213;SHT31;53015;50.046;8.238;2023-04-24T00:00:13;12.09;88.21
66213;SHT31;53015;50.046;8.238;2023-04-24T00:02:39;11.90;88.48
66213;SHT31;53015;50.046;8.238;2023-04-24T00:05:04;11.82;88.41
66213;SHT31;53015;50.046;8.238;2023-04-24T00:07:30;11.92;88.74
66213;SHT31;53015;50.046;8.238;2023-04-24T00:09:56;11.90;88.76
66213;SHT31;53015;50.046;8.238;2023-04-24T00:12:23;11.76;88.66
66213;SHT31;53015;50.046;8.238;2023-04-24T00:14:49;11.71;88.70
66213;SHT31;53015;50.046;8.238;2023-04-24T00:17:14;11.65;89.24
66213;SHT31;53015;50.046;8.238;2023-04-24T00:19:40;11.59;88.55
66213;SHT31;53015;50.046;8.238;2023-04-24T00:22:05;11.68;88.90
66213;SHT31;53015;50.046;8.238;2023-04-24T00:24:31;11.75;88.63
66213;SHT31;53015;50.046;8.238;2023-04-24T00:26:56;11.69;88.65
66213;SHT31;53015;50.046;8.238;2023-04-24T00:29:23;11.87;88.73
66213;SHT31;53015;50.046;8.238;2023-04-24T00:31:49;12.03;87.39
66213;SHT31;53015;50.046;8.238;2023-04-24T00:34:14;12.03;87.10
66213;SHT31;53015;50.046;8.238;2023-04-24T00:36:40;12.03;87.06
66213;SHT31;53015;50.046;8.238;2023-04-24T00:39:06;12.23;87.06
66213;SHT31;53015;50.046;8.238;2023-04-24T00:41:31;12.20;86.86
66213;SHT31;53015;50.046;8.238;2023-04-24T00:43:57;12.29;86.69
66213;SHT31;53015;50.046;8.238;2023-04-24T00:46:24;12.23;86.59
66213;SHT31;53015;50.046;8.238;2023-04-24T00:48:50;12.00;87.17
66213;SHT31;53015;50.046;8.238;2023-04-24T00:51:15;11.78;87.22
66213;SHT31;53015;50.046;8.238;2023-04-24T00:53:41;11.79;87.65
66213;SHT31;53015;50.046;8.238;2023-04-24T00:56:07;11.82;87.69
66213;SHT31;53015;50.046;8.238;2023-04-24T00:58:32;11.87;87.59
66213;SHT31;53015;50.046;8.238;2023-04-24T01:00:58;11.87;86.67
66213;SHT31;53015;50.046;8.238;2023-04-24T01:03:29;11.76;87.94
66213;SHT31;53015;50.046;8.238;2023-04-24T01:05:55;11.94;86.71
66213;SHT31;53015;50.046;8.238;2023-04-24T01:08:21;12.04;87.14
66213;SHT31;53015;50.046;8.238;2023-04-24T01:10:50;12.00;86.96
66213;SHT31;53015;50.046;8.238;2023-04-24T01:13:17;11.99;86.72
66213;SHT31;53015;50.046;8.238;2023-04-24T01:15:43;11.94;87.24
66213;SHT31;53015;50.046;8.238;2023-04-24T01:18:08;12.06;87.01
66213;SHT31;53015;50.046;8.238;2023-04-24T01:20:36;12.10;85.80
66213;SHT31;53015;50.046;8.238;2023-04-24T01:23:04;12.16;85.75
66213;SHT31;53015;50.046;8.238;2023-04-24T01:25:29;12.13;85.22
66213;SHT31;53015;50.046;8.238;2023-04-24T01:27:55;12.16;86.02
66213;SHT31;53015;50.046;8.238;2023-04-24T01:30:21;12.19;85.43
66213;SHT31;53015;50.046;8.238;2023-04-24T01:32:46;12.13;86.21
66213;SHT31;53015;50.046;8.238;2023-04-24T01:35:12;12.16;86.45
66213;SHT31;53015;50.046;8.238;2023-04-24T01:37:37;12.20;86.58
66213;SHT31;53015;50.046;8.238;2023-04-24T01:40:06;12.00;86.78
66213;SHT31;53015;50.046;8.238;2023-04-24T01:42:32;12.14;87.14
66213;SHT31;53015;50.046;8.238;2023-04-24T01:44:58;12.14;85.54
66213;SHT31;53015;50.046;8.238;2023-04-24T01:47:24;12.24;85.64
66213;SHT31;53015;50.046;8.238;2023-04-24T01:49:50;12.21;86.29
66213;SHT31;53015;50.046;8.238;2023-04-24T01:52:17;12.16;86.09
66213;SHT31;53015;50.046;8.238;2023-04-24T01:54:42;12.19;85.86
66213;SHT31;53015;50.046;8.238;2023-04-24T01:57:09;12.16;85.43
66213;SHT31;53015;50.046;8.238;2023-04-24T01:59:35;12.09;85.47
66213;SHT31;53015;50.046;8.238;2023-04-24T02:02:01;12.04;85.62
66213;SHT31;53015;50.046;8.238;2023-04-24T02:04:26;11.96;86.17
66213;SHT31;53015;50.046;8.238;2023-04-24T02:06:52;11.85;86.47
66213;SHT31;53015;50.046;8.238;2023-04-24T02:09:17;11.81;87.49
66213;SHT31;53015;50.046;8.238;2023-04-24T02:11:43;11.79;87.86
66213;SHT31;53015;50.046;8.238;2023-04-24T02:14:10;11.89;87.34
66213;SHT31;53015;50.046;8.238;2023-04-24T02:16:35;11.94;87.93
66213;SHT31;53015;50.046;8.238;2023-04-24T02:19:01;11.96;87.91
66213;SHT31;53015;50.046;8.238;2023-04-24T02:21:26;11.93;88.45
66213;SHT31;53015;50.046;8.238;2023-04-24T02:23:52;12.03;88.47
66213;SHT31;53015;50.046;8.238;2023-04-24T02:26:17;12.06;88.32
66213;SHT31;53015;50.046;8.238;2023-04-24T02:28:43;12.06;87.91
66213;SHT31;53015;50.046;8.238;2023-04-24T02:31:10;12.04;87.92
66213;SHT31;53015;50.046;8.238;2023-04-24T02:33:36;12.13;87.52
66213;SHT31;53015;50.046;8.238;2023-04-24T02:36:02;12.29;88.01
66213;SHT31;53015;50.046;8.238;2023-04-24T02:38:27;12.23;88.14
66213;SHT31;53015;50.046;8.238;2023-04-24T02:40:53;12.14;88.68
66213;SHT31;53015;50.046;8.238;2023-04-24T02:43:18;12.23;88.14
66213;SHT31;53015;50.046;8.238;2023-04-24T02:45:44;12.14;88.38
66213;SHT31;53015;50.046;8.238;2023-04-24T02:48:12;12.12;88.64
66213;SHT31;53015;50.046;8.238;2023-04-24T02:50:37;12.03;88.71
66213;SHT31;53015;50.046;8.238;2023-04-24T02:53:03;12.09;88.57
66213;SHT31;53015;50.046;8.238;2023-04-24T02:55:28;12.21;88.26
66213;SHT31;53015;50.046;8.238;2023-04-24T02:57:54;12.29;88.42
66213;SHT31;53015;50.046;8.238;2023-04-24T03:00:20;12.10;89.00
66213;SHT31;53015;50.046;8.238;2023-04-24T03:02:45;12.17;88.42
66213;SHT31;53015;50.046;8.238;2023-04-24T03:05:12;12.24;88.38
66213;SHT31;53015;50.046;8.238;2023-04-24T03:07:38;12.17;89.06
66213;SHT31;53015;50.046;8.238;2023-04-24T03:10:04;12.16;89.22
66213;SHT31;53015;50.046;8.238;2023-04-24T03:12:29;12.10;89.63
66213;SHT31;53015;50.046;8.238;2023-04-24T03:14:55;12.02;88.87
66213;SHT31;53015;50.046;8.238;2023-04-24T03:17:20;12.09;89.21
66213;SHT31;53015;50.046;8.238;2023-04-24T03:19:46;12.04;89.63
66213;SHT31;53015;50.046;8.238;2023-04-24T03:22:13;12.07;89.55
66213;SHT31;53015;50.046;8.238;2023-04-24T03:24:39;11.99;89.76
66213;SHT31;53015;50.046;8.238;2023-04-24T03:27:04;11.87;87.70
66213;SHT31;53015;50.046;8.238;2023-04-24T03:29:30;11.73;86.46
66213;SHT31;53015;50.046;8.238;2023-04-24T03:31:55;11.71;86.46
66213;SHT31;53015;50.046;8.238;2023-04-24T03:34:20;11.59;85.67
66213;SHT31;53015;50.046;8.238;2023-04-24T03:36:46;11.55;85.56
66213;SHT31;53015;50.046;8.238;2023-04-24T03:39:13;11.45;81.10
66213;SHT31;53015;50.046;8.238;2023-04-24T03:41:38;11.35;79.78
66213;SHT31;53015;50.046;8.238;2023-04-24T03:44:04;11.27;78.24
66213;SHT31;53015;50.046;8.238;2023-04-24T03:46:29;11.10;78.09
66213;SHT31;53015;50.046;8.238;2023-04-24T03:48:55;11.00;79.48
66213;SHT31;53015;50.046;8.238;2023-04-24T03:51:20;10.89;78.09
66213;SHT31;53015;50.046;8.238;2023-04-24T03:53:46;10.88;79.07
66213;SHT31;53015;50.046;8.238;2023-04-24T03:56:13;10.76;80.07
66213;SHT31;53015;50.046;8.238;2023-04-24T03:58:38;10.62;79.53
66213;SHT31;53015;50.046;8.238;2023-04-24T04:01:04;10.45;80.79
66213;SHT31;53015;50.046;8.238;2023-04-24T04:03:29;10.44;80.17
66213;SHT31;53015;50.046;8.238;2023-04-24T04:05:55;10.42;81.72
66213;SHT31;53015;50.046;8.238;2023-04-24T04:08:20;10.28;81.54
66213;SHT31;53015;50.046;8.238;2023-04-24T04:10:46;10.30;79.39
66213;SHT31;53015;50.046;8.238;2023-04-24T04:13:12;10.30;78.57
66213;SHT31;53015;50.046;8.238;2023-04-24T04:15:38;10.37;79.95
66213;SHT31;53015;50.046;8.238;2023-04-24T04:18:04;10.21;78.44
66213;SHT31;53015;50.046;8.238;2023-04-24T04:20:29;10.21;80.18
66213;SHT31;53015;50.046;8.238;2023-04-24T04:22:55;10.11;80.09
66213;SHT31;53015;50.046;8.238;2023-04-24T04:25:20;10.10;79.81
66213;SHT31;53015;50.046;8.238;2023-04-24T04:27:46;10.10;80.62
66213;SHT31;53015;50.046;8.238;2023-04-24T04:30:13;10.08;81.82
66213;SHT31;53015;50.046;8.238;2023-04-24T04:32:39;10.13;82.59
66213;SHT31;53015;50.046;8.238;2023-04-24T04:35:05;10.10;82.60
66213;SHT31;53015;50.046;8.238;2023-04-24T04:37:30;10.08;83.30
66213;SHT31;53015;50.046;8.238;2023-04-24T04:39:56;10.14;83.78
66213;SHT31;53015;50.046;8.238;2023-04-24T04:42:21;10.00;84.09
66213;SHT31;53015;50.046;8.238;2023-04-24T04:44:47;10.03;83.92
66213;SHT31;53015;50.046;8.238;2023-04-24T04:47:14;9.97;84.37
66213;SHT31;53015;50.046;8.238;2023-04-24T04:49:39;9.85;83.80
66213;SHT31;53015;50.046;8.238;2023-04-24T04:52:05;9.86;83.25
66213;SHT31;53015;50.046;8.238;2023-04-24T04:54:30;10.01;84.03
66213;SHT31;53015;50.046;8.238;2023-04-24T04:56:56;9.86;84.16
66213;SHT31;53015;50.046;8.238;2023-04-24T04:59:21;9.72;83.15
66213;SHT31;53015;50.046;8.238;2023-04-24T05:01:47;9.75;83.70
66213;SHT31;53015;50.046;8.238;2023-04-24T05:04:14;9.82;83.53
66213;SHT31;53015;50.046;8.238;2023-04-24T05:06:39;9.80;80.63
66213;SHT31;53015;50.046;8.238;2023-04-24T05:09:05;9.73;80.55
66213;SHT31;53015;50.046;8.238;2023-04-24T05:11:30;9.66;80.58
66213;SHT31;53015;50.046;8.238;2023-04-24T05:13:56;9.68;80.03
66213;SHT31;53015;50.046;8.238;2023-04-24T05:16:21;9.66;80.78
66213;SHT31;53015;50.046;8.238;2023-04-24T05:18:47;9.59;79.44
66213;SHT31;53015;50.046;8.238;2023-04-24T05:21:14;9.65;79.95
66213;SHT31;53015;50.046;8.238;2023-04-24T05:23:39;9.68;78.32
66213;SHT31;53015;50.046;8.238;2023-04-24T05:26:04;9.68;78.98
66213;SHT31;53015;50.046;8.238;2023-04-24T05:28:30;9.66;78.94
66213;SHT31;53015;50.046;8.238;2023-04-24T05:30:55;9.82;77.87
66213;SHT31;53015;50.046;8.238;2023-04-24T05:33:21;9.82;79.13
66213;SHT31;53015;50.046;8.238;2023-04-24T05:35:46;9.80;79.11
66213;SHT31;53015;50.046;8.238;2023-04-24T05:38:14;9.87;78.78
66213;SHT31;53015;50.046;8.238;2023-04-24T05:40:39;9.89;80.03
66213;SHT31;53015;50.046;8.238;2023-04-24T05:43:05;9.73;79.27
66213;SHT31;53015;50.046;8.238;2023-04-24T05:45:30;9.86;79.69
66213;SHT31;53015;50.046;8.238;2023-04-24T05:47:56;9.79;80.80
66213;SHT31;53015;50.046;8.238;2023-04-24T05:50:21;9.85;80.80
66213;SHT31;53015;50.046;8.238;2023-04-24T05:52:47;9.90;79.41
66213;SHT31;53015;50.046;8.238;2023-04-24T05:55:14;9.90;79.58
66213;SHT31;53015;50.046;8.238;2023-04-24T05:57:39;9.78;78.29
66213;SHT31;53015;50.046;8.238;2023-04-24T06:00:06;9.94;78.91
66213;SHT31;53015;50.046;8.238;2023-04-24T06:02:32;10.16;78.77
66213;SHT31;53015;50.046;8.238;2023-04-24T06:04:57;10.31;76.97
66213;SHT31;53015;50.046;8.238;2023-04-24T06:07:23;10.44;78.36
66213;SHT31;53015;50.046;8.238;2023-04-24T06:09:48;10.49;78.11
66213;SHT31;53015;50.046;8.238;2023-04-24T06:12:15;10.31;76.70
66213;SHT31;53015;50.046;8.238;2023-04-24T06:14:40;10.42;78.11
66213;SHT31;53015;50.046;8.238;2023-04-24T06:17:06;10.45;78.88
66213;SHT31;53015;50.046;8.238;2023-04-24T06:19:31;10.42;76.77
66213;SHT31;53015;50.046;8.238;2023-04-24T06:21:57;10.46;76.83
66213;SHT31;53015;50.046;8.238;2023-04-24T06:24:27;10.77;77.85
66213;SHT31;53015;50.046;8.238;2023-04-24T06:26:52;11.13;76.26
66213;SHT31;53015;50.046;8.238;2023-04-24T06:29:19;11.26;76.40
66213;SHT31;53015;50.046;8.238;2023-04-24T06:31:45;11.37;75.63
66213;SHT31;53015;50.046;8.238;2023-04-24T06:34:10;11.28;74.60
66213;SHT31;53015;50.046;8.238;2023-04-24T06:36:36;11.27;75.47
66213;SHT31;53015;50.046;8.238;2023-04-24T06:39:01;11.21;75.77
66213;SHT31;53015;50.046;8.238;2023-04-24T06:41:27;11.14;73.68
66213;SHT31;53015;50.046;8.238;2023-04-24T06:43:53;11.30;74.02
66213;SHT31;53015;50.046;8.238;2023-04-24T06:46:20;11.54;74.89
66213;SHT31;53015;50.046;8.238;2023-04-24T06:48:46;11.58;73.48
66213;SHT31;53015;50.046;8.238;2023-04-24T06:51:11;11.69;73.87
66213;SHT31;53015;50.046;8.238;2023-04-24T06:53:37;11.79;74.22
66213;SHT31;53015;50.046;8.238;2023-04-24T06:56:03;11.72;73.74
66213;SHT31;53015;50.046;8.238;2023-04-24T06:58:30;11.86;73.64
66213;SHT31;53015;50.046;8.238;2023-04-24T07:00:55;12.06;73.57
66213;SHT31;53015;50.046;8.238;2023-04-24T07:03:22;11.86;73.01
66213;SHT31;53015;50.046;8.238;2023-04-24T07:05:48;11.71;73.37
66213;SHT31;53015;50.046;8.238;2023-04-24T07:08:13;11.66;74.38
66213;SHT31;53015;50.046;8.238;2023-04-24T07:10:39;11.79;72.90
66213;SHT31;53015;50.046;8.238;2023-04-24T07:13:05;11.72;72.64
66213;SHT31;53015;50.046;8.238;2023-04-24T07:15:30;11.92;73.27
66213;SHT31;53015;50.046;8.238;2023-04-24T07:17:55;11.79;73.21
66213;SHT31;53015;50.046;8.238;2023-04-24T07:20:23;11.75;73.83
66213;SHT31;53015;50.046;8.238;2023-04-24T07:22:48;11.65;72.96
66213;SHT31;53015;50.046;8.238;2023-04-24T07:25:14;11.96;73.56
66213;SHT31;53015;50.046;8.238;2023-04-24T07:27:39;12.42;72.40
66213;SHT31;53015;50.046;8.238;2023-04-24T07:30:06;12.85;71.61
66213;SHT31;53015;50.046;8.238;2023-04-24T07:32:31;13.10;69.37
66213;SHT31;53015;50.046;8.238;2023-04-24T07:34:57;13.20;69.19
66213;SHT31;53015;50.046;8.238;2023-04-24T07:37:24;12.97;69.03
66213;SHT31;53015;50.046;8.238;2023-04-24T07:39:49;13.09;69.90
66213;SHT31;53015;50.046;8.238;2023-04-24T07:42:15;13.26;69.05
66213;SHT31;53015;50.046;8.238;2023-04-24T07:44:40;13.33;68.40
66213;SHT31;53015;50.046;8.238;2023-04-24T07:47:06;13.50;68.12
66213;SHT31;53015;50.046;8.238;2023-04-24T07:49:31;13.24;68.68
66213;SHT31;53015;50.046;8.238;2023-04-24T07:51:57;13.03;68.60
66213;SHT31;53015;50.046;8.238;2023-04-24T07:54:24;12.61;69.97
66213;SHT31;53015;50.046;8.238;2023-04-24T07:56:49;12.49;70.13
66213;SHT31;53015;50.046;8.238;2023-04-24T07:59:15;12.68;70.91
66213;SHT31;53015;50.046;8.238;2023-04-24T08:01:40;12.88;69.39
66213;SHT31;53015;50.046;8.238;2023-04-24T08:04:06;12.81;67.84
66213;SHT31;53015;50.046;8.238;2023-04-24T08:06:31;13.00;67.27
66213;SHT31;53015;50.046;8.238;2023-04-24T08:08:57;13.17;66.62
66213;SHT31;53015;50.046;8.238;2023-04-24T08:11:24;13.19;68.09
66213;SHT31;53015;50.046;8.238;2023-04-24T08:13:49;13.27;67.48
66213;SHT31;53015;50.046;8.238;2023-04-24T08:16:15;13.02;66.59
66213;SHT31;53015;50.046;8.238;2023-04-24T08:18:41;13.04;66.36
66213;SHT31;53015;50.046;8.238;2023-04-24T08:21:06;13.02;67.20
66213;SHT31;53015;50.046;8.238;2023-04-24T08:23:32;13.00;67.74
66213;SHT31;53015;50.046;8.238;2023-04-24T08:25:57;12.82;67.70
66213;SHT31;53015;50.046;8.238;2023-04-24T08:28:25;12.82;67.58
66213;SHT31;53015;50.046;8.238;2023-04-24T08:30:50;12.68;68.53
66213;SHT31;53015;50.046;8.238;2023-04-24T08:33:16;12.31;68.40
66213;SHT31;53015;50.046;8.238;2023-04-24T08:35:41;12.37;69.33
66213;SHT31;53015;50.046;8.238;2023-04-24T08:38:07;12.33;69.83
66213;SHT31;53015;50.046;8.238;2023-04-24T08:40:34;12.23;69.63
66213;SHT31;53015;50.046;8.238;2023-04-24T08:43:00;12.26;70.08
66213;SHT31;53015;50.046;8.238;2023-04-24T08:45:27;12.21;69.68
66213;SHT31;53015;50.046;8.238;2023-04-24T08:47:53;12.06;70.19
66213;SHT31;53015;50.046;8.238;2023-04-24T08:50:19;12.34;70.75
66213;SHT31;53015;50.046;8.238;2023-04-24T08:52:45;12.57;70.22
66213;SHT31;53015;50.046;8.238;2023-04-24T08:55:10;12.67;70.03
66213;SHT31;53015;50.046;8.238;2023-04-24T08:57:36;12.84;69.23
66213;SHT31;53015;50.046;8.238;2023-04-24T09:00:02;12.68;67.94
66213;SHT31;53015;50.046;8.238;2023-04-24T09:02:29;12.61;68.29
66213;SHT31;53015;50.046;8.238;2023-04-24T09:04:55;12.41;68.94
66213;SHT31;53015;50.046;8.238;2023-04-24T09:07:22;12.23;69.17
66213;SHT31;53015;50.046;8.238;2023-04-24T09:09:50;12.19;69.53
66213;SHT31;53015;50.046;8.238;2023-04-24T09:12:16;12.23;70.52
66213;SHT31;53015;50.046;8.238;2023-04-24T09:14:42;12.14;70.36
66213;SHT31;53015;50.046;8.238;2023-04-24T09:17:07;12.33;70.26
66213;SHT31;53015;50.046;8.238;2023-04-24T09:19:34;12.31;71.41
66213;SHT31;53015;50.046;8.238;2023-04-24T09:22:04;12.41;69.82
66213;SHT31;53015;50.046;8.238;2023-04-24T09:24:30;12.45;70.65
66213;SHT31;53015;50.046;8.238;2023-04-24T09:26:56;12.57;70.44
66213;SHT31;53015;50.046;8.238;2023-04-24T09:29:22;12.65;69.66
66213;SHT31;53015;50.046;8.238;2023-04-24T09:31:48;12.58;69.20
66213;SHT31;53015;50.046;8.238;2023-04-24T09:34:13;12.62;70.52
66213;SHT31;53015;50.046;8.238;2023-04-24T09:36:42;12.64;70.77
66213;SHT31;53015;50.046;8.238;2023-04-24T09:39:09;12.59;70.41
66213;SHT31;53015;50.046;8.238;2023-04-24T09:41:35;12.57;70.10
66213;SHT31;53015;50.046;8.238;2023-04-24T09:44:11;12.40;69.67
66213;SHT31;53015;50.046;8.238;2023-04-24T09:46:37;12.31;70.41
66213;SHT31;53015;50.046;8.238;2023-04-24T09:49:07;12.23;70.44
66213;SHT31;53015;50.046;8.238;2023-04-24T09:51:34;12.24;71.15
66213;SHT31;53015;50.046;8.238;2023-04-24T09:54:01;12.40;71.57
66213;SHT31;53015;50.046;8.238;2023-04-24T09:56:27;12.26;73.30
66213;SHT31;53015;50.046;8.238;2023-04-24T09:58:52;12.09;73.95
66213;SHT31;53015;50.046;8.238;2023-04-24T10:01:29;12.07;74.25
66213;SHT31;53015;50.046;8.238;2023-04-24T10:03:55;12.12;74.69
66213;SHT31;53015;50.046;8.238;2023-04-24T10:06:21;12.13;74.40
66213;SHT31;53015;50.046;8.238;2023-04-24T10:08:48;12.27;73.85
66213;SHT31;53015;50.046;8.238;2023-04-24T10:11:15;12.24;73.22
66213;SHT31;53015;50.046;8.238;2023-04-24T10:13:42;12.37;75.46
66213;SHT31;53015;50.046;8.238;2023-04-24T10:16:08;12.58;76.10
66213;SHT31;53015;50.046;8.238;2023-04-24T10:18:34;12.33;76.27
66213;SHT31;53015;50.046;8.238;2023-04-24T10:21:01;12.44;75.68
66213;SHT31;53015;50.046;8.238;2023-04-24T10:23:27;12.42;76.90
66213;SHT31;53015;50.046;8.238;2023-04-24T10:25:53;12.49;77.34
66213;SHT31;53015;50.046;8.238;2023-04-24T10:28:21;12.48;77.20
66213;SHT31;53015;50.046;8.238;2023-04-24T10:30:47;12.49;77.34
66213;SHT31;53015;50.046;8.238;2023-04-24T10:33:13;12.58;76.82
66213;SHT31;53015;50.046;8.238;2023-04-24T10:35:42;13.02;76.83
66213;SHT31;53015;50.046;8.238;2023-04-24T10:38:12;13.20;74.11
66213;SHT31;53015;50.046;8.238;2023-04-24T10:40:38;13.20;72.50
66213;SHT31;53015;50.046;8.238;2023-04-24T10:43:05;13.46;72.38
66213;SHT31;53015;50.046;8.238;2023-04-24T10:45:32;13.86;72.26
66213;SHT31;53015;50.046;8.238;2023-04-24T10:47:58;13.95;69.65
66213;SHT31;53015;50.046;8.238;2023-04-24T10:50:25;14.01;69.63
66213;SHT31;53015;50.046;8.238;2023-04-24T10:52:51;13.78;69.00
66213;SHT31;53015;50.046;8.238;2023-04-24T10:58:10;13.96;69.37
66213;SHT31;53015;50.046;8.238;2023-04-24T11:00:38;13.90;69.47
66213;SHT31;53015;50.046;8.238;2023-04-24T11:03:05;13.85;70.47
66213;SHT31;53015;50.046;8.238;2023-04-24T11:05:52;13.90;70.32
66213;SHT31;53015;50.046;8.238;2023-04-24T11:08:24;13.99;70.51
66213;SHT31;53015;50.046;8.238;2023-04-24T11:10:55;13.89;71.35
66213;SHT31;53015;50.046;8.238;2023-04-24T11:13:22;13.58;71.38
66213;SHT31;53015;50.046;8.238;2023-04-24T11:16:12;13.61;70.85
66213;SHT31;53015;50.046;8.238;2023-04-24T11:18:37;13.72;70.72
66213;SHT31;53015;50.046;8.238;2023-04-24T11:21:10;13.89;72.43
66213;SHT31;53015;50.046;8.238;2023-04-24T11:23:36;14.37;70.73
66213;SHT31;53015;50.046;8.238;2023-04-24T11:26:10;14.70;68.04
66213;SHT31;53015;50.046;8.238;2023-04-24T11:28:36;15.16;67.61
66213;SHT31;53015;50.046;8.238;2023-04-24T11:31:34;15.26;66.21
66213;SHT31;53015;50.046;8.238;2023-04-24T11:34:06;15.37;64.67
66213;SHT31;53015;50.046;8.238;2023-04-24T11:36:32;14.65;63.64
66213;SHT31;53015;50.046;8.238;2023-04-24T11:38:58;14.29;65.68
66213;SHT31;53015;50.046;8.238;2023-04-24T11:41:24;13.77;67.33
66213;SHT31;53015;50.046;8.238;2023-04-24T11:43:50;13.24;71.23
66213;SHT31;53015;50.046;8.238;2023-04-24T11:46:18;11.96;76.83
66213;SHT31;53015;50.046;8.238;2023-04-24T11:48:45;11.31;81.67
66213;SHT31;53015;50.046;8.238;2023-04-24T11:51:12;11.04;82.42
66213;SHT31;53015;50.046;8.238;2023-04-24T11:53:37;10.65;83.05
66213;SHT31;53015;50.046;8.238;2023-04-24T12:00:56;10.41;88.08
66213;SHT31;53015;50.046;8.238;2023-04-24T12:03:23;10.79;87.42
66213;SHT31;53015;50.046;8.238;2023-04-24T12:05:48;11.03;86.25
66213;SHT31;53015;50.046;8.238;2023-04-24T12:08:27;11.03;82.95
66213;SHT31;53015;50.046;8.238;2023-04-24T12:10:52;11.28;83.66
66213;SHT31;53015;50.046;8.238;2023-04-24T12:13:18;11.62;85.40
66213;SHT31;53015;50.046;8.238;2023-04-24T12:15:43;11.96;83.92
66213;SHT31;53015;50.046;8.238;2023-04-24T12:18:12;12.07;83.37
66213;SHT31;53015;50.046;8.238;2023-04-24T12:20:40;12.00;82.13
66213;SHT31;53015;50.046;8.238;2023-04-24T12:23:06;12.12;82.64
66213;SHT31;53015;50.046;8.238;2023-04-24T12:25:32;12.29;80.53
66213;SHT31;53015;50.046;8.238;2023-04-24T12:28:09;12.29;77.71
66213;SHT31;53015;50.046;8.238;2023-04-24T12:30:38;12.45;78.01
66213;SHT31;53015;50.046;8.238;2023-04-24T12:33:04;12.45;77.13
66213;SHT31;53015;50.046;8.238;2023-04-24T12:35:31;12.64;75.26
66213;SHT31;53015;50.046;8.238;2023-04-24T12:38:06;12.59;73.95
66213;SHT31;53015;50.046;8.238;2023-04-24T12:40:32;12.82;75.16
66213;SHT31;53015;50.046;8.238;2023-04-24T12:42:57;12.71;71.62
66213;SHT31;53015;50.046;8.238;2023-04-24T12:45:23;13.00;75.06
66213;SHT31;53015;50.046;8.238;2023-04-24T12:47:48;13.34;77.17
66213;SHT31;53015;50.046;8.238;2023-04-24T12:50:15;13.72;71.68
66213;SHT31;53015;50.046;8.238;2023-04-24T12:52:41;13.77;70.67
66213;SHT31;53015;50.046;8.238;2023-04-24T12:55:09;13.64;72.65
66213;SHT31;53015;50.046;8.238;2023-04-24T12:57:35;13.47;70.21
66213;SHT31;53015;50.046;8.238;2023-04-24T13:00:02;13.48;73.17
66213;SHT31;53015;50.046;8.238;2023-04-24T13:02:29;13.28;69.14
66213;SHT31;53015;50.046;8.238;2023-04-24T13:04:55;13.46;72.07
66213;SHT31;53015;50.046;8.238;2023-04-24T13:07:20;13.68;69.51
66213;SHT31;53015;50.046;8.238;2023-04-24T13:09:48;13.72;68.59
66213;SHT31;53015;50.046;8.238;2023-04-24T13:12:15;13.94;66.96
66213;SHT31;53015;50.046;8.238;2023-04-24T13:14:41;14.19;65.61
66213;SHT31;53015;50.046;8.238;2023-04-24T13:17:06;14.05;67.28
66213;SHT31;53015;50.046;8.238;2023-04-24T13:19:36;13.78;65.29
66213;SHT31;53015;50.046;8.238;2023-04-24T13:22:02;14.02;66.28
66213;SHT31;53015;50.046;8.238;2023-04-24T13:24:27;14.17;68.31
66213;SHT31;53015;50.046;8.238;2023-04-24T13:26:53;14.20;67.80
66213;SHT31;53015;50.046;8.238;2023-04-24T13:29:20;14.06;68.20
66213;SHT31;53015;50.046;8.238;2023-04-24T13:31:46;14.06;69.01
66213;SHT31;53015;50.046;8.238;2023-04-24T13:34:12;14.08;69.11
66213;SHT31;53015;50.046;8.238;2023-04-24T13:36:37;13.96;68.18
66213;SHT31;53015;50.046;8.238;2023-04-24T13:39:05;13.96;67.88
66213;SHT31;53015;50.046;8.238;2023-04-24T13:41:30;13.89;67.20
66213;SHT31;53015;50.046;8.238;2023-04-24T13:43:57;14.10;68.67
66213;SHT31;53015;50.046;8.238;2023-04-24T13:46:24;14.24;67.47
66213;SHT31;53015;50.046;8.238;2023-04-24T13:48:49;14.40;65.31
66213;SHT31;53015;50.046;8.238;2023-04-24T13:51:15;14.57;63.03
66213;SHT31;53015;50.046;8.238;2023-04-24T13:53:40;14.72;63.34
66213;SHT31;53015;50.046;8.238;2023-04-24T13:56:06;15.06;63.01
66213;SHT31;53015;50.046;8.238;2023-04-24T13:58:31;15.18;62.71
66213;SHT31;53015;50.046;8.238;2023-04-24T14:00:57;15.27;65.20
66213;SHT31;53015;50.046;8.238;2023-04-24T14:03:24;15.12;63.29
66213;SHT31;53015;50.046;8.238;2023-04-24T14:05:49;14.74;63.16
66213;SHT31;53015;50.046;8.238;2023-04-24T14:08:15;14.63;64.04
66213;SHT31;53015;50.046;8.238;2023-04-24T14:10:41;14.61;62.17
66213;SHT31;53015;50.046;8.238;2023-04-24T14:13:07;14.48;61.05
66213;SHT31;53015;50.046;8.238;2023-04-24T14:15:32;14.53;60.82
66213;SHT31;53015;50.046;8.238;2023-04-24T14:17:58;14.47;61.09
66213;SHT31;53015;50.046;8.238;2023-04-24T14:20:25;14.53;61.57
66213;SHT31;53015;50.046;8.238;2023-04-24T14:22:50;14.47;62.71
66213;SHT31;53015;50.046;8.238;2023-04-24T14:25:16;14.40;61.88
66213;SHT31;53015;50.046;8.238;2023-04-24T14:27:42;14.45;61.69
66213;SHT31;53015;50.046;8.238;2023-04-24T14:30:08;14.56;60.91
66213;SHT31;53015;50.046;8.238;2023-04-24T14:32:33;14.64;60.85
66213;SHT31;53015;50.046;8.238;2023-04-24T14:34:59;14.87;61.93
66213;SHT31;53015;50.046;8.238;2023-04-24T14:37:26;14.93;59.49
66213;SHT31;53015;50.046;8.238;2023-04-24T14:39:51;15.13;60.18
66213;SHT31;53015;50.046;8.238;2023-04-24T14:42:17;15.30;59.47
66213;SHT31;53015;50.046;8.238;2023-04-24T14:44:42;15.49;57.43
66213;SHT31;53015;50.046;8.238;2023-04-24T14:47:08;15.71;58.64
66213;SHT31;53015;50.046;8.238;2023-04-24T14:49:33;15.30;56.29
66213;SHT31;53015;50.046;8.238;2023-04-24T14:51:59;15.06;57.80
66213;SHT31;53015;50.046;8.238;2023-04-24T14:54:25;14.85;59.27
66213;SHT31;53015;50.046;8.238;2023-04-24T14:56:51;14.67;61.93
66213;SHT31;53015;50.046;8.238;2023-04-24T14:59:16;14.64;62.85
66213;SHT31;53015;50.046;8.238;2023-04-24T15:01:42;14.50;62.40
66213;SHT31;53015;50.046;8.238;2023-04-24T15:04:07;14.38;62.50
66213;SHT31;53015;50.046;8.238;2023-04-24T15:06:33;14.30;64.81
66213;SHT31;53015;50.046;8.238;2023-04-24T15:08:58;14.57;64.07
66213;SHT31;53015;50.046;8.238;2023-04-24T15:11:25;14.64;63.02
66213;SHT31;53015;50.046;8.238;2023-04-24T15:13:51;14.75;63.22
66213;SHT31;53015;50.046;8.238;2023-04-24T15:16:16;14.74;63.27
66213;SHT31;53015;50.046;8.238;2023-04-24T15:18:42;14.72;62.06
66213;SHT31;53015;50.046;8.238;2023-04-24T15:21:08;14.44;61.52
66213;SHT31;53015;50.046;8.238;2023-04-24T15:23:33;14.26;61.34
66213;SHT31;53015;50.046;8.238;2023-04-24T15:25:59;14.09;61.26
66213;SHT31;53015;50.046;8.238;2023-04-24T15:28:26;14.08;63.65
66213;SHT31;53015;50.046;8.238;2023-04-24T15:30:51;14.19;63.12
66213;SHT31;53015;50.046;8.238;2023-04-24T15:33:17;14.40;62.18